Terminal Aerodrome Forecast
Issued by NWS North Platte, NE

Home | Current Version | Previous Version | Text Only | Print | Product List | Glossary On
Versions: 1 2 3 4 5 6 7 8 9 10 11 12 13 14 15 16
000
FTUS43 KLBF 170806 AAA
TAFLBF
TAF AMD
KLBF 170806Z 1708/1806 06010KT P6SM OVC009
      TEMPO 1709/1713 P6SM OVC005
     FM171700 34005KT P6SM OVC015
     FM172100 VRB03KT P6SM OVC025
     FM180100 18005KT P6SM BKN035=

USA.gov is the U.S. government's official web portal to all federal, state and local government web resources and services.